Time;durP1;ratioP1;P1;durP2;ratioP2;P2;SDS_P1;SDS_P2;PMS_P1;PMS_P2;Temp;Humidity;BMP_temperature;BMP_pressure;BME280_temperature;BME280_humidity;BME280_pressure;Samples;Min_cycle;Max_cycle;Signal;HPM_P1;HPM_P2
2022/06/30 00:02:10;;;;;;;9.00;7.18;;;20.10;99.90;;;;;;5016414;28;20049;-65
2022/06/30 00:04:36;;;;;;;8.02;6.85;;;20.10;99.90;;;;;;5010543;28;20052;-65
2022/06/30 00:07:02;;;;;;;8.15;6.97;;;20.00;99.90;;;;;;5021179;28;20037;-64
2022/06/30 00:09:28;;;;;;;9.55;6.35;;;20.00;99.90;;;;;;5020586;28;20048;-64
2022/06/30 00:11:56;;;;;;;8.65;6.45;;;20.00;99.90;;;;;;5023453;28;20488;-64
2022/06/30 00:14:22;;;;;;;8.00;6.25;;;20.00;99.90;;;;;;5018803;28;20041;-64
2022/06/30 00:16:48;;;;;;;8.88;6.32;;;20.00;99.90;;;;;;5017270;28;20060;-67
2022/06/30 00:19:14;;;;;;;8.45;6.07;;;20.00;99.90;;;;;;5024578;28;20427;-66
2022/06/30 00:21:40;;;;;;;6.53;5.82;;;20.00;99.90;;;;;;5012663;28;20120;-67
2022/06/30 00:24:05;;;;;;;8.30;5.60;;;19.90;99.90;;;;;;5029709;28;20049;-66
2022/06/30 00:26:31;;;;;;;7.53;5.30;;;19.90;99.90;;;;;;5018189;28;20052;-67
2022/06/30 00:28:56;;;;;;;7.93;5.53;;;19.90;99.90;;;;;;5028405;28;20044;-65
2022/06/30 00:31:22;;;;;;;9.13;5.55;;;19.90;99.90;;;;;;5017715;28;20124;-67
2022/06/30 00:33:49;;;;;;;8.73;5.55;;;19.80;99.90;;;;;;5014857;28;20064;-67
2022/06/30 00:36:15;;;;;;;7.03;5.40;;;19.80;99.90;;;;;;5019472;28;20374;-66
2022/06/30 00:38:41;;;;;;;5.88;4.93;;;19.80;99.90;;;;;;5023704;28;20060;-64
2022/06/30 00:41:07;;;;;;;8.50;5.82;;;19.80;99.90;;;;;;5019212;28;20042;-67
2022/06/30 00:43:44;;;;;;;8.18;5.03;;;19.80;99.90;;;;;;5018993;28;20488;-65
2022/06/30 00:46:10;;;;;;;6.82;5.25;;;19.80;99.90;;;;;;5013391;28;20116;-66
2022/06/30 00:48:36;;;;;;;7.82;5.88;;;19.80;99.90;;;;;;5030943;28;20479;-66
2022/06/30 00:51:05;;;;;;;7.50;5.38;;;19.70;99.90;;;;;;5029577;28;20120;-66
2022/06/30 00:53:39;;;;;;;7.07;5.68;;;19.70;99.90;;;;;;5021274;28;20038;-67
2022/06/30 00:56:07;;;;;;;10.85;6.00;;;19.70;99.90;;;;;;5017364;28;20069;-65
2022/06/30 00:58:39;;;;;;;8.98;5.72;;;19.70;99.90;;;;;;5028377;28;20436;-66
2022/06/30 01:01:10;;;;;;;8.45;5.82;;;19.70;99.90;;;;;;5025815;28;20050;-66
2022/06/30 01:03:36;;;;;;;7.30;5.70;;;19.70;99.90;;;;;;5026770;28;20128;-66
2022/06/30 01:06:03;;;;;;;10.35;5.90;;;19.60;99.90;;;;;;5026034;28;20100;-66
2022/06/30 01:08:30;;;;;;;7.30;5.72;;;19.60;99.90;;;;;;5032387;28;20041;-66
2022/06/30 01:13:41;;;;;;;7.20;5.50;;;19.50;99.90;;;;;;5024879;28;20077;-66
2022/06/30 01:16:07;;;;;;;7.22;5.72;;;19.50;99.90;;;;;;5025001;28;20072;-67
2022/06/30 01:18:34;;;;;;;9.07;5.80;;;19.50;99.90;;;;;;5031151;28;20037;-66
2022/06/30 01:21:00;;;;;;;6.22;5.63;;;19.50;99.90;;;;;;5033021;28;20033;-67
2022/06/30 01:23:25;;;;;;;9.40;6.18;;;19.40;99.90;;;;;;5024471;28;20054;-67
2022/06/30 01:25:52;;;;;;;6.68;5.60;;;19.40;99.90;;;;;;5024447;28;20519;-66
2022/06/30 01:28:19;;;;;;;7.30;5.93;;;19.40;99.90;;;;;;5015586;28;20045;-64
2022/06/30 01:30:45;;;;;;;7.20;5.88;;;19.40;99.90;;;;;;5032222;28;20482;-66
2022/06/30 01:33:11;;;;;;;6.90;5.40;;;19.40;99.90;;;;;;5033191;28;20046;-66
2022/06/30 01:35:36;;;;;;;8.55;5.10;;;19.40;99.90;;;;;;5022781;28;20394;-65
2022/06/30 01:38:02;;;;;;;9.32;5.75;;;19.40;99.90;;;;;;5023465;28;20042;-66
2022/06/30 01:40:33;;;;;;;9.77;5.40;;;19.40;99.90;;;;;;5031311;28;20459;-67
2022/06/30 01:42:59;;;;;;;7.47;5.40;;;19.30;99.90;;;;;;5032664;28;20143;-65
2022/06/30 01:45:25;;;;;;;9.82;5.60;;;19.30;99.90;;;;;;5019163;28;20125;-65
2022/06/30 01:47:51;;;;;;;8.38;5.63;;;19.30;99.90;;;;;;5022249;28;20450;-66
2022/06/30 01:50:26;;;;;;;9.25;5.70;;;19.30;99.90;;;;;;5024165;28;20042;-66
2022/06/30 01:52:52;;;;;;;6.50;5.38;;;19.20;99.90;;;;;;5031865;28;20041;-67
2022/06/30 01:55:17;;;;;;;8.15;5.10;;;19.20;99.90;;;;;;5022426;28;20468;-66
2022/06/30 01:57:43;;;;;;;6.20;4.85;;;19.20;99.90;;;;;;5029084;28;20033;-65
2022/06/30 02:00:13;;;;;;;8.65;5.22;;;19.20;99.90;;;;;;5034466;28;20056;-65
2022/06/30 02:02:39;;;;;;;6.75;5.10;;;19.20;99.90;;;;;;5023896;28;20095;-66
2022/06/30 02:05:06;;;;;;;7.28;5.35;;;19.20;99.90;;;;;;5030168;28;20037;-65
2022/06/30 02:07:35;;;;;;;8.60;5.25;;;19.20;99.90;;;;;;5017047;28;20563;-66
2022/06/30 02:10:02;;;;;;;5.97;5.38;;;19.20;99.90;;;;;;5024804;28;20046;-63
2022/06/30 02:12:45;;;;;;;7.38;5.05;;;19.20;99.90;;;;;;5024316;28;20056;-64
2022/06/30 02:15:18;;;;;;;6.50;5.10;;;19.20;99.90;;;;;;5019276;28;20033;-66
2022/06/30 02:17:45;;;;;;;8.85;4.90;;;19.20;99.90;;;;;;5025932;28;20041;-64
2022/06/30 02:20:11;;;;;;;7.72;5.40;;;19.20;99.90;;;;;;5017465;28;20552;-66
2022/06/30 02:22:39;;;;;;;7.38;5.13;;;19.20;99.90;;;;;;5022133;28;20053;-67
2022/06/30 02:25:06;;;;;;;9.70;5.28;;;19.10;99.90;;;;;;5030289;28;20040;-67
2022/06/30 02:27:32;;;;;;;9.15;5.30;;;19.20;99.90;;;;;;5027131;28;20302;-66
2022/06/30 02:29:58;;;;;;;5.82;5.22;;;19.10;99.90;;;;;;5019340;28;20164;-67
2022/06/30 02:32:23;;;;;;;6.88;5.25;;;19.10;99.90;;;;;;5026517;28;20034;-66
2022/06/30 02:34:50;;;;;;;8.60;5.35;;;19.10;99.90;;;;;;5014921;28;20424;-67
2022/06/30 02:37:16;;;;;;;7.72;5.68;;;19.10;99.90;;;;;;5022177;28;20108;-64
2022/06/30 02:39:42;;;;;;;9.80;5.47;;;19.10;99.90;;;;;;5026851;28;20037;-65
2022/06/30 02:42:08;;;;;;;9.50;5.78;;;19.00;99.90;;;;;;5020572;28;20488;-67
2022/06/30 02:44:34;;;;;;;7.03;5.40;;;19.00;99.90;;;;;;5025038;28;20216;-67
2022/06/30 02:47:00;;;;;;;8.18;5.78;;;19.00;99.90;;;;;;5029892;28;20091;-66
2022/06/30 02:49:26;;;;;;;6.13;5.25;;;19.00;99.90;;;;;;5019508;28;20128;-66
2022/06/30 02:51:51;;;;;;;7.13;5.88;;;19.00;99.90;;;;;;5019198;28;20136;-67
2022/06/30 02:54:17;;;;;;;7.80;5.45;;;19.00;99.90;;;;;;5028845;28;20048;-64
2022/06/30 02:56:43;;;;;;;7.47;5.65;;;19.00;99.90;;;;;;5012920;28;20507;-65
2022/06/30 02:59:09;;;;;;;10.18;5.82;;;18.90;99.90;;;;;;5026532;28;20400;-64
2022/06/30 03:01:35;;;;;;;9.05;5.85;;;18.90;99.90;;;;;;5024021;28;20045;-65
2022/06/30 03:04:01;;;;;;;8.15;5.78;;;18.90;99.90;;;;;;5018687;28;20037;-66
2022/06/30 03:06:28;;;;;;;6.20;5.60;;;18.90;99.90;;;;;;5027014;28;20073;-64
2022/06/30 03:08:58;;;;;;;7.18;5.80;;;18.90;99.90;;;;;;5025803;28;20052;-64
2022/06/30 03:11:25;;;;;;;7.93;5.90;;;18.80;99.90;;;;;;5022637;28;20450;-64
2022/06/30 03:13:50;;;;;;;7.60;5.95;;;18.80;99.90;;;;;;5024499;28;20104;-64
2022/06/30 03:16:17;;;;;;;6.47;5.47;;;18.80;99.90;;;;;;5029805;28;20041;-65
2022/06/30 03:18:43;;;;;;;7.65;6.15;;;18.80;99.90;;;;;;5028039;28;20106;-64
2022/06/30 03:21:09;;;;;;;7.80;5.57;;;18.70;99.90;;;;;;5022157;28;20225;-64
2022/06/30 03:23:35;;;;;;;7.65;5.35;;;18.70;99.90;;;;;;5028933;28;20480;-64
2022/06/30 03:26:01;;;;;;;8.93;6.35;;;18.70;99.90;;;;;;5020193;28;20042;-64
2022/06/30 03:28:27;;;;;;;7.65;5.80;;;18.70;99.90;;;;;;5023543;28;20157;-64
2022/06/30 03:30:53;;;;;;;8.00;5.60;;;18.70;99.90;;;;;;5018937;28;20124;-64
2022/06/30 03:33:19;;;;;;;7.28;5.90;;;18.70;99.90;;;;;;5028349;28;20168;-64
2022/06/30 03:35:46;;;;;;;8.20;5.57;;;18.60;99.90;;;;;;5016707;28;20128;-64
2022/06/30 03:38:13;;;;;;;8.23;6.30;;;18.60;99.90;;;;;;5028418;28;20124;-64
2022/06/30 03:40:39;;;;;;;9.30;6.10;;;18.60;99.90;;;;;;5027757;28;20043;-64
2022/06/30 03:43:04;;;;;;;7.40;6.20;;;18.60;99.90;;;;;;5023622;28;20555;-64
2022/06/30 03:45:30;;;;;;;11.15;6.32;;;18.60;99.90;;;;;;5015087;28;20041;-64
2022/06/30 03:48:00;;;;;;;7.80;6.13;;;18.60;99.90;;;;;;5017029;28;20484;-65
2022/06/30 03:50:25;;;;;;;8.55;6.55;;;18.50;99.90;;;;;;5018955;28;20112;-64
2022/06/30 03:52:52;;;;;;;6.85;6.15;;;18.50;99.90;;;;;;5021914;28;20574;-64
2022/06/30 03:55:18;;;;;;;8.65;6.30;;;18.50;99.90;;;;;;5021231;28;20041;-64
2022/06/30 03:57:43;;;;;;;7.60;6.45;;;18.50;99.90;;;;;;5015043;28;20045;-64
2022/06/30 04:00:10;;;;;;;7.63;6.88;;;18.50;99.90;;;;;;5022644;28;20446;-64
2022/06/30 04:02:35;;;;;;;8.45;6.25;;;18.50;99.90;;;;;;5021809;28;20041;-64
2022/06/30 04:05:01;;;;;;;8.98;6.18;;;18.40;99.90;;;;;;5027907;28;20102;-64
2022/06/30 04:07:26;;;;;;;8.60;6.68;;;18.40;99.90;;;;;;5017472;28;20112;-65
2022/06/30 04:09:52;;;;;;;8.20;6.57;;;18.40;99.90;;;;;;5017958;28;20036;-64
2022/06/30 04:12:18;;;;;;;7.20;6.47;;;18.40;99.90;;;;;;5019359;28;20506;-64
2022/06/30 04:14:43;;;;;;;7.57;6.72;;;18.40;99.90;;;;;;5020612;28;20033;-64
2022/06/30 04:17:09;;;;;;;7.32;6.40;;;18.40;99.90;;;;;;5030964;28;20033;-64
2022/06/30 04:19:35;;;;;;;7.28;6.40;;;18.40;99.90;;;;;;5023015;28;20119;-65
2022/06/30 04:22:01;;;;;;;11.23;6.38;;;18.40;99.90;;;;;;5024917;28;20116;-65
2022/06/30 04:24:26;;;;;;;10.43;6.72;;;18.40;99.90;;;;;;5029257;28;20497;-64
2022/06/30 04:26:52;;;;;;;7.75;6.50;;;18.40;99.90;;;;;;5020946;28;20148;-65
2022/06/30 04:29:17;;;;;;;10.55;6.43;;;18.40;99.90;;;;;;5025323;28;20037;-65
2022/06/30 04:34:27;;;;;;;7.43;6.60;;;18.40;99.90;;;;;;5031272;28;20041;-66
2022/06/30 04:36:53;;;;;;;7.82;6.75;;;18.40;99.90;;;;;;5029068;28;20029;-64
2022/06/30 04:39:18;;;;;;;9.68;7.10;;;18.40;99.90;;;;;;5018834;28;20416;-64
2022/06/30 04:41:44;;;;;;;7.50;6.32;;;18.40;99.90;;;;;;5014182;28;20050;-64
2022/06/30 04:44:09;;;;;;;8.07;7.10;;;18.40;99.90;;;;;;5022230;28;20183;-65
2022/06/30 04:46:35;;;;;;;8.85;6.65;;;18.40;99.90;;;;;;5033612;28;20134;-64
2022/06/30 04:49:01;;;;;;;8.65;6.35;;;18.40;99.90;;;;;;5031548;28;20037;-64
2022/06/30 04:51:27;;;;;;;9.98;7.18;;;18.40;99.90;;;;;;5032124;28;20416;-65
2022/06/30 04:53:53;;;;;;;9.48;6.65;;;18.50;99.90;;;;;;5018850;28;20403;-64
2022/06/30 04:56:18;;;;;;;8.48;7.60;;;18.40;99.90;;;;;;5022372;28;20041;-64
2022/06/30 04:58:44;;;;;;;7.93;7.03;;;18.50;99.90;;;;;;5017600;28;20535;-65
2022/06/30 05:01:11;;;;;;;9.18;7.25;;;18.50;99.90;;;;;;5030908;28;20033;-65
2022/06/30 05:03:37;;;;;;;9.77;6.80;;;18.50;99.90;;;;;;5021945;28;20041;-64
2022/06/30 05:06:03;;;;;;;9.00;7.40;;;18.50;99.90;;;;;;5026926;28;20478;-64
2022/06/30 05:08:29;;;;;;;8.30;7.03;;;18.50;99.90;;;;;;5015351;28;20551;-64
2022/06/30 05:10:55;;;;;;;10.30;7.13;;;18.50;99.90;;;;;;5018804;28;20046;-65
2022/06/30 05:13:20;;;;;;;8.57;6.93;;;18.50;99.90;;;;;;5033550;28;20041;-64
2022/06/30 05:15:46;;;;;;;7.75;6.88;;;18.60;99.90;;;;;;5031637;28;20037;-65
2022/06/30 05:18:13;;;;;;;11.13;6.93;;;18.60;99.90;;;;;;5025838;28;20149;-64
2022/06/30 05:20:40;;;;;;;8.60;7.13;;;18.60;99.90;;;;;;5031962;28;20053;-66
2022/06/30 05:23:06;;;;;;;10.35;7.53;;;18.60;99.90;;;;;;5025089;28;20050;-63
2022/06/30 05:28:17;;;;;;;8.90;7.53;;;18.60;99.90;;;;;;5023369;28;20049;-64
2022/06/30 05:30:43;;;;;;;11.07;7.57;;;18.70;99.90;;;;;;5024665;28;20389;-64
2022/06/30 05:33:09;;;;;;;9.32;6.85;;;18.70;99.90;;;;;;5032976;28;20111;-65
2022/06/30 05:35:35;;;;;;;8.68;7.50;;;18.70;99.90;;;;;;5023499;28;20037;-64
2022/06/30 05:38:01;;;;;;;8.65;7.47;;;18.70;99.90;;;;;;5015761;28;20294;-64
2022/06/30 05:40:27;;;;;;;9.80;7.68;;;18.70;99.90;;;;;;5030484;28;20435;-64
2022/06/30 05:42:54;;;;;;;8.32;6.95;;;18.70;99.90;;;;;;5030496;28;20504;-64
2022/06/30 05:45:20;;;;;;;8.57;7.55;;;18.80;99.90;;;;;;5022289;28;20056;-64
2022/06/30 05:47:48;;;;;;;9.30;7.10;;;18.80;99.90;;;;;;5025516;28;20049;-65
2022/06/30 05:50:14;;;;;;;9.27;7.50;;;18.80;99.90;;;;;;5024092;28;20053;-64
2022/06/30 05:52:41;;;;;;;8.05;7.00;;;18.90;99.90;;;;;;5018438;28;20393;-64
2022/06/30 05:55:08;;;;;;;10.43;7.43;;;18.90;99.90;;;;;;5024527;28;20045;-63
2022/06/30 05:57:33;;;;;;;10.77;7.75;;;18.90;99.90;;;;;;5031934;28;20076;-65
2022/06/30 05:59:59;;;;;;;8.85;7.60;;;18.90;99.90;;;;;;5030206;28;20495;-64
2022/06/30 06:02:25;;;;;;;11.23;6.90;;;19.00;99.90;;;;;;5024889;28;20034;-64
2022/06/30 06:04:50;;;;;;;10.05;7.00;;;19.00;99.90;;;;;;5028711;28;20117;-64
2022/06/30 06:07:16;;;;;;;8.38;6.88;;;19.10;99.90;;;;;;5023948;28;20064;-64
2022/06/30 06:09:42;;;;;;;8.98;7.60;;;19.10;99.90;;;;;;5027739;28;20494;-65
2022/06/30 06:12:08;;;;;;;9.43;7.38;;;19.10;99.90;;;;;;5027276;28;20045;-64
2022/06/30 06:14:33;;;;;;;11.02;7.15;;;19.10;99.90;;;;;;5024173;28;20038;-64
2022/06/30 06:16:59;;;;;;;9.38;8.30;;;19.20;99.90;;;;;;5030576;28;20084;-64
2022/06/30 06:19:25;;;;;;;11.18;8.00;;;19.20;99.90;;;;;;5025935;28;20072;-64
2022/06/30 06:21:50;;;;;;;10.18;8.60;;;19.30;99.90;;;;;;5019625;28;20407;-64
2022/06/30 06:24:17;;;;;;;12.73;9.07;;;19.30;99.90;;;;;;5031032;28;20554;-65
2022/06/30 06:26:42;;;;;;;12.85;8.32;;;19.30;99.90;;;;;;5024814;28;20095;-65
2022/06/30 06:29:11;;;;;;;10.15;8.00;;;19.40;99.90;;;;;;5036678;28;20044;-64
2022/06/30 06:31:39;;;;;;;10.57;8.23;;;19.40;99.90;;;;;;5018090;28;20045;-66
2022/06/30 06:34:06;;;;;;;10.10;8.85;;;19.50;99.90;;;;;;5017468;28;20436;-64
2022/06/30 06:36:32;;;;;;;9.88;8.73;;;19.50;99.90;;;;;;5023200;28;20037;-64
2022/06/30 06:38:58;;;;;;;10.10;8.45;;;19.60;99.90;;;;;;5024862;28;20041;-66
2022/06/30 06:41:24;;;;;;;12.90;8.93;;;19.60;99.90;;;;;;5023813;28;20542;-64
2022/06/30 06:43:51;;;;;;;11.82;9.05;;;19.60;99.90;;;;;;5024232;28;20048;-64
2022/06/30 06:46:17;;;;;;;12.20;9.45;;;19.70;99.90;;;;;;5026805;28;20061;-65
2022/06/30 06:48:43;;;;;;;13.40;8.98;;;19.70;99.90;;;;;;5024263;28;20069;-65
2022/06/30 06:51:09;;;;;;;10.70;8.65;;;19.80;99.90;;;;;;5033295;28;20558;-65
2022/06/30 06:53:37;;;;;;;11.10;8.80;;;19.90;99.90;;;;;;5022744;28;20081;-65
2022/06/30 06:56:04;;;;;;;13.73;9.73;;;19.90;99.90;;;;;;5025249;28;20034;-64
2022/06/30 06:58:30;;;;;;;12.43;9.75;;;20.00;99.90;;;;;;5017120;28;20048;-64
2022/06/30 07:00:56;;;;;;;10.63;8.98;;;20.00;99.90;;;;;;5025336;28;20492;-64
2022/06/30 07:03:22;;;;;;;13.05;9.60;;;20.10;99.90;;;;;;5026797;28;20072;-66
2022/06/30 07:05:48;;;;;;;11.48;10.27;;;20.10;99.90;;;;;;5032477;28;20037;-65
2022/06/30 07:08:13;;;;;;;10.57;8.60;;;20.20;99.90;;;;;;5027196;28;20128;-65
2022/06/30 07:10:39;;;;;;;11.50;9.88;;;20.30;99.90;;;;;;5025660;28;20493;-64
2022/06/30 07:13:05;;;;;;;12.25;10.95;;;20.30;99.90;;;;;;5035568;28;20484;-64
2022/06/30 07:15:31;;;;;;;12.40;9.98;;;20.40;99.90;;;;;;5020895;28;20068;-64
2022/06/30 07:17:58;;;;;;;10.52;9.43;;;20.50;99.90;;;;;;5025998;28;20408;-64
2022/06/30 07:20:24;;;;;;;13.07;10.82;;;20.50;99.90;;;;;;5020751;28;20080;-64
2022/06/30 07:22:50;;;;;;;11.45;10.25;;;20.60;99.90;;;;;;5022901;28;20469;-65
2022/06/30 07:25:16;;;;;;;11.02;9.82;;;20.60;99.90;;;;;;5013422;28;20124;-65
2022/06/30 07:27:42;;;;;;;11.98;10.45;;;20.70;99.90;;;;;;5024977;28;20125;-64
2022/06/30 07:30:08;;;;;;;14.18;10.63;;;20.70;99.90;;;;;;5022680;28;20077;-63
2022/06/30 07:32:35;;;;;;;13.15;10.30;;;20.70;99.90;;;;;;5021482;28;20037;-64
2022/06/30 07:35:00;;;;;;;12.30;10.57;;;20.80;99.90;;;;;;5027836;28;20103;-65
2022/06/30 07:37:26;;;;;;;15.52;11.48;;;20.80;99.90;;;;;;5012551;28;20041;-65
2022/06/30 07:39:52;;;;;;;12.90;11.48;;;20.90;99.90;;;;;;5024796;28;20037;-64
2022/06/30 07:42:17;;;;;;;12.93;11.55;;;21.00;99.90;;;;;;5024452;28;20049;-64
2022/06/30 07:44:43;;;;;;;14.27;10.93;;;21.10;99.90;;;;;;5033600;28;20116;-64
2022/06/30 07:47:10;;;;;;;12.82;11.43;;;21.10;99.90;;;;;;5022316;28;20396;-64
2022/06/30 07:49:36;;;;;;;16.55;11.27;;;21.20;99.90;;;;;;5025143;28;20069;-64
2022/06/30 07:52:02;;;;;;;14.10;12.02;;;21.20;99.90;;;;;;5017341;28;20080;-64
2022/06/30 07:54:27;;;;;;;14.40;11.20;;;21.30;99.90;;;;;;5019612;28;20041;-64
2022/06/30 07:56:53;;;;;;;17.85;11.45;;;21.40;99.90;;;;;;5029263;28;20034;-65
2022/06/30 07:59:18;;;;;;;15.38;12.50;;;21.40;99.90;;;;;;5019249;28;20034;-66
2022/06/30 08:01:44;;;;;;;13.63;11.95;;;21.50;99.90;;;;;;5023958;28;20045;-64
2022/06/30 08:04:11;;;;;;;17.27;12.43;;;21.50;99.90;;;;;;5027245;28;20115;-64
2022/06/30 08:06:37;;;;;;;16.08;12.90;;;21.60;99.90;;;;;;5019392;28;20102;-65
2022/06/30 08:09:03;;;;;;;13.70;12.23;;;21.70;99.90;;;;;;5024900;28;20044;-65
2022/06/30 08:11:29;;;;;;;17.58;13.30;;;21.70;99.90;;;;;;5024140;28;20427;-66
2022/06/30 08:13:55;;;;;;;14.50;11.60;;;21.80;99.90;;;;;;5025100;28;20064;-64
2022/06/30 08:16:20;;;;;;;14.85;12.13;;;22.00;99.90;;;;;;5020625;28;20515;-64
2022/06/30 08:18:46;;;;;;;14.38;12.30;;;21.90;99.90;;;;;;5022837;28;20444;-64
2022/06/30 08:21:11;;;;;;;15.48;12.75;;;22.10;99.90;;;;;;5027831;28;20120;-67
2022/06/30 08:23:39;;;;;;;14.63;11.50;;;22.30;99.90;;;;;;5028176;28;20360;-64
2022/06/30 08:26:05;;;;;;;13.77;12.10;;;22.40;99.90;;;;;;5030791;28;20303;-64
2022/06/30 08:28:33;;;;;;;13.35;11.95;;;22.60;99.90;;;;;;5028008;28;20488;-64
2022/06/30 08:31:02;;;;;;;13.15;11.20;;;22.90;99.90;;;;;;5028297;28;20052;-64
2022/06/30 08:33:28;;;;;;;17.70;13.05;;;23.30;99.90;;;;;;5021199;28;20052;-65
2022/06/30 08:35:54;;;;;;;15.43;13.23;;;23.60;99.90;;;;;;5019231;28;20029;-65
2022/06/30 08:38:21;;;;;;;16.30;12.98;;;23.80;99.90;;;;;;5017075;28;20169;-64
2022/06/30 08:43:33;;;;;;;14.05;12.45;;;24.30;99.90;;;;;;5016912;28;20132;-64
2022/06/30 08:46:00;;;;;;;16.25;13.52;;;24.50;99.90;;;;;;5028563;28;20128;-64
2022/06/30 08:48:26;;;;;;;14.73;12.60;;;24.60;99.90;;;;;;5027018;28;20061;-64
2022/06/30 08:50:58;;;;;;;14.38;12.90;;;24.70;99.90;;;;;;5029823;28;20041;-64
2022/06/30 08:53:27;;;;;;;16.42;13.32;;;24.80;99.90;;;;;;5021177;28;20147;-65
2022/06/30 08:55:53;;;;;;;15.77;13.77;;;25.00;99.90;;;;;;5024415;28;20506;-64
2022/06/30 08:58:20;;;;;;;15.15;13.60;;;25.10;99.90;;;;;;5025832;28;20045;-67
2022/06/30 09:00:46;;;;;;;15.70;13.52;;;25.20;99.90;;;;;;5022423;28;20451;-64
2022/06/30 09:03:11;;;;;;;14.93;13.20;;;25.40;99.90;;;;;;5031975;28;20037;-65
2022/06/30 09:05:39;;;;;;;14.43;12.90;;;25.50;99.90;;;;;;5026744;28;20059;-64
2022/06/30 09:08:05;;;;;;;16.50;13.70;;;25.60;99.90;;;;;;5023495;28;20037;-65
2022/06/30 09:10:30;;;;;;;14.77;13.32;;;25.70;99.90;;;;;;5023271;28;20076;-64
2022/06/30 09:12:57;;;;;;;14.35;12.70;;;25.80;99.90;;;;;;5027950;28;20034;-64
2022/06/30 09:15:23;;;;;;;14.48;12.88;;;25.90;99.90;;;;;;5024691;28;20044;-66
2022/06/30 09:17:48;;;;;;;13.15;11.63;;;26.00;99.90;;;;;;5031594;28;20034;-67
2022/06/30 09:20:14;;;;;;;12.82;11.60;;;26.00;99.90;;;;;;5035579;28;20063;-65
2022/06/30 09:22:41;;;;;;;13.73;11.30;;;26.30;99.90;;;;;;5030315;28;20033;-65
2022/06/30 09:25:18;;;;;;;12.43;11.13;;;26.50;99.90;;;;;;5018179;28;20038;-66
2022/06/30 09:27:47;;;;;;;14.20;12.75;;;26.80;99.90;;;;;;5026057;28;20532;-65
2022/06/30 09:30:21;;;;;;;12.15;10.95;;;26.90;99.90;;;;;;5031284;28;20034;-64
2022/06/30 09:32:54;;;;;;;14.07;10.93;;;27.10;99.90;;;;;;5026590;28;20036;-64
2022/06/30 09:35:23;;;;;;;10.70;9.60;;;27.30;99.90;;;;;;5023212;28;20056;-65
2022/06/30 09:38:09;;;;;;;12.18;10.90;;;27.70;99.90;;;;;;5031391;28;20498;-65
2022/06/30 09:40:36;;;;;;;11.38;10.20;;;27.80;98.90;;;;;;5016213;28;20088;-65
2022/06/30 09:43:04;;;;;;;13.90;10.95;;;27.80;98.90;;;;;;5029636;28;20060;-65
2022/06/30 09:45:34;;;;;;;13.00;11.00;;;27.80;98.40;;;;;;5031810;28;20043;-65
2022/06/30 09:48:00;;;;;;;11.23;9.98;;;27.70;97.10;;;;;;5035343;28;20487;-65
2022/06/30 09:50:26;;;;;;;11.25;9.93;;;27.80;97.00;;;;;;5023718;28;20050;-65
2022/06/30 09:53:14;;;;;;;12.75;11.55;;;27.90;96.50;;;;;;5024807;28;20484;-65
2022/06/30 09:55:41;;;;;;;11.38;9.18;;;28.00;96.30;;;;;;5029381;28;20396;-66
2022/06/30 09:58:07;;;;;;;13.10;11.80;;;28.20;96.80;;;;;;5023846;28;20063;-65
2022/06/30 10:00:48;;;;;;;11.40;10.27;;;28.40;96.30;;;;;;5039442;28;20056;-65
2022/06/30 10:03:16;;;;;;;10.73;9.63;;;28.50;94.90;;;;;;5014464;28;20034;-65
2022/06/30 10:05:44;;;;;;;10.68;9.68;;;28.80;95.30;;;;;;5027573;28;20041;-67
2022/06/30 10:08:15;;;;;;;10.63;9.52;;;28.90;94.50;;;;;;5030175;28;20041;-64
2022/06/30 10:10:41;;;;;;;;;;;29.00;93.60;;;;;;5029172;28;20042;-65
2022/06/30 10:13:18;;;;;;;16.40;8.60;;;29.10;92.20;;;;;;5029546;28;19916;-65
2022/06/30 10:15:54;;;;;;;9.25;7.63;;;29.30;92.60;;;;;;5024508;28;20045;-65
2022/06/30 10:18:26;;;;;;;9.95;7.22;;;29.10;91.00;;;;;;5026586;28;20066;-65
2022/06/30 10:20:52;;;;;;;12.60;7.75;;;28.90;90.90;;;;;;5022844;28;20491;-65
2022/06/30 10:23:21;;;;;;;11.65;10.07;;;29.00;91.50;;;;;;5025930;28;20132;-65
2022/06/30 10:25:49;;;;;;;11.13;8.93;;;29.20;91.30;;;;;;5024025;28;20052;-65
2022/06/30 10:28:23;;;;;;;14.93;11.30;;;29.20;90.50;;;;;;5015854;28;20728;-65
2022/06/30 10:30:54;;;;;;;13.93;10.63;;;29.20;90.30;;;;;;5029179;28;20044;-65
2022/06/30 10:33:39;;;;;;;14.15;9.48;;;29.40;91.20;;;;;;5030186;28;20037;-65
2022/06/30 10:36:29;;;;;;;10.77;9.15;;;29.70;91.30;;;;;;5021785;28;20100;-65
2022/06/30 10:39:12;;;;;;;13.02;9.93;;;30.00;89.50;;;;;;5030523;28;20291;-65
2022/06/30 10:41:45;;;;;;;11.27;10.15;;;30.30;90.30;;;;;;5030711;28;20061;-65
2022/06/30 10:44:14;;;;;;;12.68;10.02;;;30.40;88.30;;;;;;5022547;28;20037;-65
2022/06/30 10:46:51;;;;;;;10.80;9.02;;;30.50;88.60;;;;;;5031301;28;20067;-67
2022/06/30 10:49:17;;;;;;;8.18;7.28;;;30.70;86.80;;;;;;5017139;28;20050;-65
2022/06/30 10:51:45;;;;;;;12.45;8.40;;;30.90;86.50;;;;;;5019875;28;20069;-65
2022/06/30 10:54:28;;;;;;;15.02;9.13;;;31.10;85.10;;;;;;5017064;28;20029;-65
2022/06/30 10:56:55;;;;;;;9.55;8.32;;;31.10;80.70;;;;;;5030335;28;20097;-67
2022/06/30 10:59:30;;;;;;;9.38;8.48;;;31.10;81.40;;;;;;5032143;28;20034;-65
2022/06/30 11:02:08;;;;;;;10.25;8.77;;;31.10;79.50;;;;;;5022655;28;20096;-66
2022/06/30 11:04:44;;;;;;;8.48;7.03;;;31.00;80.00;;;;;;5033150;28;20056;-66
2022/06/30 11:07:14;;;;;;;8.82;7.10;;;31.00;80.40;;;;;;5013476;28;20041;-65
2022/06/30 11:09:49;;;;;;;;;;;30.80;78.00;;;;;;5025052;28;20400;-66
2022/06/30 11:12:19;;;;;;;10.77;7.45;;;30.70;73.80;;;;;;5026496;28;20386;-65
2022/06/30 11:14:52;;;;;;;10.10;5.80;;;30.70;77.70;;;;;;5023984;28;20438;-65
2022/06/30 11:17:26;;;;;;;9.40;6.70;;;30.80;77.80;;;;;;5024749;28;20275;-65
2022/06/30 11:20:14;;;;;;;8.70;5.80;;;30.90;75.40;;;;;;5025177;28;20059;-65
2022/06/30 11:22:41;;;;;;;9.77;4.97;;;30.90;74.10;;;;;;5019291;28;20157;-65
2022/06/30 11:28:12;;;;;;;5.88;4.60;;;31.10;73.30;;;;;;5026397;28;20099;-66
2022/06/30 11:30:38;;;;;;;8.13;5.00;;;31.10;71.30;;;;;;5027021;28;20368;-65
2022/06/30 11:33:03;;;;;;;8.85;4.40;;;31.00;70.50;;;;;;5026459;28;20037;-65
2022/06/30 11:35:30;;;;;;;8.55;3.72;;;31.10;70.30;;;;;;5029427;28;20037;-65
2022/06/30 11:37:56;;;;;;;4.88;3.33;;;31.20;70.10;;;;;;5025419;28;20037;-65
2022/06/30 11:40:22;;;;;;;7.65;3.42;;;31.40;69.30;;;;;;5025338;28;20060;-65
2022/06/30 11:42:50;;;;;;;7.00;3.45;;;31.50;68.30;;;;;;5024489;28;20120;-65
2022/06/30 11:45:21;;;;;;;6.22;3.20;;;31.40;66.40;;;;;;5022068;28;20029;-65
2022/06/30 11:48:00;;;;;;;7.10;3.42;;;31.30;65.00;;;;;;5015716;28;20045;-65
2022/06/30 11:50:26;;;;;;;8.13;4.13;;;31.10;62.80;;;;;;5024450;28;20057;-65
2022/06/30 11:52:55;;;;;;;5.80;4.20;;;30.80;65.50;;;;;;5021427;28;20073;-65
2022/06/30 11:55:25;;;;;;;7.25;3.67;;;30.70;67.00;;;;;;5018438;28;20038;-65
2022/06/30 11:57:50;;;;;;;7.65;5.45;;;30.60;68.30;;;;;;5024531;28;20033;-65
2022/06/30 12:00:20;;;;;;;7.82;5.03;;;30.50;69.30;;;;;;5032625;28;20045;-65
2022/06/30 12:02:46;;;;;;;9.10;5.88;;;30.60;69.20;;;;;;5030922;28;20518;-66
2022/06/30 12:05:17;;;;;;;6.82;4.50;;;30.70;69.30;;;;;;5021044;28;20444;-65
2022/06/30 12:07:44;;;;;;;6.88;6.18;;;30.90;69.80;;;;;;5022344;28;20080;-65
2022/06/30 12:10:13;;;;;;;9.23;5.82;;;31.00;69.30;;;;;;5027241;28;20044;-65
2022/06/30 12:12:39;;;;;;;9.48;7.68;;;31.00;68.90;;;;;;5024989;28;20041;-65
2022/06/30 12:15:14;;;;;;;9.88;7.70;;;31.00;68.70;;;;;;5029710;28;20034;-65
2022/06/30 12:17:43;;;;;;;9.57;6.57;;;30.80;68.80;;;;;;5024960;28;20034;-65
2022/06/30 12:20:11;;;;;;;9.85;6.40;;;30.70;69.20;;;;;;5028192;28;20021;-65
2022/06/30 12:22:46;;;;;;;10.45;7.22;;;30.50;69.30;;;;;;5016804;28;20129;-64
2022/06/30 12:25:14;;;;;;;7.45;6.70;;;30.30;69.10;;;;;;5026637;28;20034;-66
2022/06/30 12:27:48;;;;;;;7.88;6.07;;;30.10;69.40;;;;;;5024606;28;20081;-64
2022/06/30 12:30:17;;;;;;;6.65;5.47;;;29.90;70.10;;;;;;5027154;28;20091;-66
2022/06/30 12:32:51;;;;;;;7.95;5.88;;;29.90;70.50;;;;;;5023377;28;20041;-64
2022/06/30 12:35:21;;;;;;;11.95;6.68;;;29.90;70.80;;;;;;5025961;28;20464;-64
2022/06/30 12:37:47;;;;;;;10.23;6.75;;;30.00;71.40;;;;;;5020945;28;20041;-65
2022/06/30 12:40:19;;;;;;;8.02;5.00;;;29.90;71.90;;;;;;5019663;28;20506;-65
2022/06/30 12:42:50;;;;;;;7.95;5.05;;;29.90;72.50;;;;;;5029340;28;20053;-64
2022/06/30 12:45:35;;;;;;;9.25;4.72;;;30.00;72.40;;;;;;5025824;28;20511;-64
2022/06/30 12:48:06;;;;;;;7.70;4.80;;;30.10;72.00;;;;;;5019741;28;20033;-65
2022/06/30 12:50:36;;;;;;;7.55;5.75;;;30.10;71.80;;;;;;5028073;28;20041;-64
2022/06/30 12:53:16;;;;;;;9.75;5.38;;;30.00;71.40;;;;;;5024958;28;20034;-64
2022/06/30 12:56:08;;;;;;;10.73;5.55;;;29.90;72.10;;;;;;5025773;28;20107;-64
2022/06/30 12:58:51;;;;;;;11.50;6.97;;;29.80;72.50;;;;;;5024731;28;20029;-65